Weather observations for the past three days for
Conway Horry County Airport
Metric (Imperial)
Date Time (edt) Wind (kph) Vis. (km) Weather Sky Cond. Temperature (ºC) Relative Humidity Wind Chill (°C) Heat Index (°C) Pressure Precipitation (cm)
Air Dwpt 6 hour altimeter (cm) sea level (mb) 1 hr 3 hr 6 hr
Max. Min.
08 14:35 NE 6 16.09 Fair CLR 21 8 43% 76.23 0.0
08 14:15 NE 7 16.09 Fair CLR 21 7 40% 76.25 0.0
08 13:55 Calm 16.09 Fair CLR 21 8 43% 76.28 0.0
08 13:35 E 6 16.09 Fair CLR 21 8 43% 76.3 0.0
08 13:15 NE 6 16.09 Fair CLR 20 8 46% 76.3 0.0
08 12:55 Calm 16.09 Fair CLR 20 7 43% 76.3 0.0
08 12:35 NE 11 16.09 Fair CLR 20 7 43% 76.33 0.0
08 12:15 N 13 16.09 Fair CLR 20 6 40% 76.33 0.0
08 11:55 NE 15 16.09 Fair CLR 20 6 40% 76.35 0.0
08 11:35 NE 9 16.09 Fair CLR 20 7 43% 76.38 0.0
08 11:15 N 15 16.09 Fair CLR 19 7 46% 76.35 0.0
08 10:50 NE 17 16.09 Fair CLR 18 7 49% 76.38 0.0
08 10:35 N 15 16.09 Fair CLR 18 8 52% 76.35 0.0
08 10:15 NE 24 11.27 Fair CLR 18 8 52% 76.35 0.0
08 09:55 N 13 16.09 Fair CLR 18 10 60% 76.33 0.0
08 09:30 N 15 16.09 Fair CLR 16 10 68% 76.33 0.0
08 09:15 N 13 16.09 Fair CLR 16 10 68% 76.3 0.0
08 08:35 NE 13 16.09 Fair CLR 15 12 82% 76.3 0.0
08 08:15 N 9 16.09 Fair CLR 13 12 94% 76.28 0.0
08 07:55 N 6 16.09 Fair CLR 13 12 94% 76.28 0.0
08 07:35 N 9 16.09 Fair CLR 12 12 100% 76.25 0.0
08 07:15 N 6 16.09 Fair CLR 12 12 100% 76.23 0.0
08 06:55 N 7 16.09 Fair CLR 12 12 100% 76.23 0.0
08 06:35 N 6 16.09 Fair CLR 12 11 94% 76.2 0.0
08 06:15 Calm 16.09 Fair CLR 12 11 94% 76.17 0.0
08 05:55 N 6 16.09 Fair CLR 12 12 100% 76.17 0.0
08 05:35 Calm 16.09 Fair CLR 12 12 100% 76.15 0.0
08 05:15 Calm 16.09 Fair CLR 12 12 100% 76.15 0.0
08 04:55 N 9 16.09 Fair CLR 12 12 100% 76.12 0.0
08 04:35 Calm 16.09 Fair CLR 12 12 100% 76.1 0.0
08 04:15 Calm 16.09 Fair CLR 12 11 94% 76.07 0.0
08 03:35 Calm 16.09 Fair CLR 12 12 100% 76.05 0.0
08 03:15 Calm 16.09 Fair CLR 12 12 100% 76.05 0.0
08 02:55 NW 6 16.09 Fair CLR 13 12 94% 76.05 0.0
08 02:35 N 6 16.09 Fair CLR 13 12 94% 76.02 0.0
08 02:15 NW 6 16.09 Fair CLR 13 12 94% 76.02 0.0
08 01:55 NW 6 16.09 Fair CLR 13 12 94% 76.02 0.0
08 01:35 N 7 16.09 Fair CLR 14 13 94% 76 0.0
08 01:15 N 6 16.09 Fair CLR 14 13 94% 76 0.0
08 00:55 N 7 16.09 Fair CLR 14 13 94% 75.97 0.0
08 00:35 N 6 16.09 Fair CLR 15 13 88% 76 0.0
08 00:15 N 7 16.09 Fair CLR 15 13 88% 75.97 0.0
07 23:55 N 9 16.09 Fair CLR 15 13 88% 75.97 0.0
07 23:35 N 15 G 28 16.09 Fair CLR 16 14 88% 75.95 0.0
07 22:55 NW 19 G 26 16.09 Fair CLR 19 18 94% 75.84 0.0
07 22:35 Calm 16.09 Fair CLR 20 20 100% 75.77 0.0
07 22:15 SW 6 16.09 Fair CLR 21 20 94% 75.77 0.0
07 21:55 W 6 16.09 Fair CLR 21 20 94% 75.74 0.0
07 21:35 W 6 16.09 Fair CLR 21 20 94% 75.72 0.0
07 21:15 SW 6 16.09 Fair CLR 21 20 94% 75.69 0.0
07 20:55 W 6 16.09 Fair CLR 21 20 94% 75.67 0.0
07 20:35 Calm 16.09 Fair CLR 22 20 88% 75.64 0.0
07 20:15 SW 7 16.09 Fair CLR 22 20 88% 75.64 0.0
07 19:55 SW 11 16.09 Fair CLR 22 20 88% 75.62 0.0
07 19:35 SW 9 16.09 Fair CLR 23 20 83% 75.62 0.0
07 19:15 SW 13 16.09 Fair CLR 23 20 83% 75.59 0.0
07 18:55 SW 11 16.09 Fair CLR 23 20 83% 75.62 0.0
07 18:35 SW 13 16.09 Fair CLR 24 20 78% 24 75.62 0.0
07 18:15 SW 7 16.09 Fair CLR 23 20 83% 75.62 0.0
07 17:55 W 13 16.09 Fair CLR 24 20 78% 24 75.64 0.0
07 17:35 SW 11 G 26 16.09 Fair CLR 23 20 83% 75.64 0.0
07 17:15 SW 17 G 33 16.09 Fair CLR 24 20 78% 24 75.62 0.0
07 16:55 W 22 G 28 16.09 Fair CLR 24 21 83% 24 75.62 0.0
07 16:35 SW 13 16.09 Fair CLR 23 21 89% 75.59 0.0
07 16:15 SW 17 G 28 16.09 Fair CLR 22 21 94% 75.59 0.0
07 15:35 S 13 16.09 Light Rain SCT022 SCT027 SCT034 20 19 94% 75.62 0.0
07 15:15 S 13 16.09 Thunderstorm Light Rain SCT034 SCT043 20 19 94% 75.69 0.0
07 14:55 SW 9 16.09 Partly Cloudy SCT035 SCT042 20 20 100% 75.72 0.0
07 14:35 W 6 16.09 Light Rain SCT019 SCT027 SCT042 20 19 94% 75.72 0.0
07 14:15 SW 7 11.27 Rain SCT016 SCT022 BKN035 19 18 94% 75.74 0.0
07 13:55 SW 7 16.09 Rain SCT031 SCT036 BKN048 20 18 88% 75.77 0.0
07 13:15 SW 13 16.09 Light Rain CLR 22 18 78% 75.79 0.0
07 12:55 SW 9 16.09 Fair CLR 22 18 78% 75.82 0.0
07 12:35 W 6 16.09 Fair CLR 22 20 88% 75.82 0.0
07 11:55 W 7 16.09 Fair CLR 22 19 83% 75.84 0.0
07 11:35 S 9 16.09 Fair CLR 22 20 88% 75.74 0.0
07 11:15 S 7 16.09 Partly Cloudy SCT033 SCT043 21 20 94% 75.79 0.0
07 10:55 SW 6 16.09 Light Rain SCT024 SCT033 SCT043 21 19 88% 75.84 0.0
07 10:35 SW 9 16.09 Fair CLR 22 19 83% 75.84 0.0
07 10:15 SW 9 16.09 Fair CLR 22 19 83% 75.84 0.0
07 09:55 SW 9 16.09 Fair CLR 22 20 88% 75.82 0.0
07 09:35 S 7 16.09 Fair CLR 21 20 94% 75.79 0.0
07 09:15 S 7 16.09 Fair CLR 21 20 94% 75.79 0.0
07 08:55 SE 9 16.09 Fair CLR 21 20 94% 75.79 0.0
07 08:35 Calm 16.09 Fair CLR 20 20 100% 75.9 0.0
07 08:15 Calm 16.09 Light Rain CLR 20 20 100% 75.95 0.0
07 07:55 Calm 16.09 Light Rain CLR 20 20 100% 75.92 0.0
07 07:35 Calm 16.09 Fair CLR 20 20 100% 75.92 0.0
07 06:55 SW 6 16.09 Partly Cloudy SCT120 21 19 88% 75.95 0.0
07 06:35 SW 9 16.09 Partly Cloudy SCT120 21 19 88% 76 0.0
07 06:15 SW 15 16.09 Light Rain CLR 20 19 94% 76 0.0
07 05:35 SW 7 16.09 Fair CLR 20 19 94% 75.92 0.0
07 05:15 SW 7 16.09 Fair CLR 20 19 94% 75.92 0.0
07 04:55 S 7 16.09 Partly Cloudy SCT120 20 19 94% 75.9 0.0
07 04:35 S 6 16.09 Fair CLR 20 19 94% 75.87 0.0
07 04:15 S 9 16.09 Fair CLR 20 19 94% 75.9 0.0
07 03:55 S 9 16.09 Fair CLR 19 19 100% 75.87 0.0
07 03:35 S 9 16.09 Light Rain CLR 19 19 100% 75.9 0.0
07 03:15 S 11 16.09 Fair CLR 19 19 100% 75.9 0.0
07 02:55 S 9 16.09 Fair CLR 19 19 100% 75.9 0.0
07 02:35 S 11 16.09 Light Rain CLR 19 19 100% 75.92 0.0
07 02:15 S 7 16.09 Light Rain CLR 19 19 100% 76 0.0
07 01:55 Calm 6.44 Rain SCT025 SCT031 SCT037 19 19 100% 76.05 0.0 0.03
07 01:35 NW 6 8.05 Rain SCT020 SCT025 SCT035 20 19 94% 76.17 0.0 0.03
07 01:15 NW 6 16.09 Light Rain CLR 20 18 88% 76.17 0.0
07 00:35 SW 7 16.09 Partly Cloudy SCT120 22 17 73% 76.07 0.0
07 00:15 SW 6 16.09 Fair CLR 22 17 73% 76.05 0.0
06 23:55 SW 7 16.09 Fair CLR 22 17 73% 76.07 0.0
06 23:35 S 7 16.09 Fair CLR 22 17 73% 76.02 0.0
06 23:15 S 7 16.09 Fair CLR 22 17 73% 75.97 0.0
06 22:55 S 11 16.09 Fair CLR 22 17 73% 76 0.0
06 22:35 S 15 16.09 Fair CLR 22 17 73% 76.02 0.0
06 21:55 S 13 16.09 Fair CLR 22 16 69% 76.05 0.0
06 21:35 S 15 G 26 16.09 Fair CLR 22 16 69% 76.05 0.0
06 21:15 S 13 16.09 Fair CLR 22 16 69% 76.05 0.0
06 20:55 S 13 16.09 Fair CLR 22 16 69% 76.05 0.0
06 20:35 S 15 16.09 Fair CLR 23 16 65% 76.05 0.0
06 20:15 S 15 16.09 Fair CLR 23 16 65% 76.02 0.0
06 19:55 S 15 16.09 Fair CLR 25 16 57% 26 76.02 0.0
06 19:35 S 17 16.09 Fair CLR 25 16 57% 26 76 0.0
06 19:15 S 13 G 30 16.09 Fair CLR 26 16 54% 27 76.02 0.0
06 18:55 S 17 G 28 16.09 Fair CLR 26 16 54% 27 76 0.0
06 18:35 S 15 G 30 16.09 Fair CLR 27 17 54% 28 76 0.0
06 18:15 S 20 16.09 Fair CLR 28 17 51% 29 75.97 0.0
06 17:55 S 19 G 28 16.09 Fair CLR 28 17 51% 29 76 0.0
06 17:35 SW 13 16.09 Fair CLR 29 15 43% 29 76 0.0
06 17:15 S 15 16.09 Fair CLR 29 15 43% 29 75.97 0.0
06 16:55 SW 13 16.09 Fair CLR 29 15 43% 29 76 0.0
06 16:35 SW 17 16.09 Fair CLR 29 15 43% 29 76.02 0.0
06 16:15 SW 13 16.09 Fair CLR 28 14 42% 28 76.02 0.0
06 15:55 SW 11 16.09 Fair CLR 28 13 40% 28 76.02 0.0
06 15:35 SW 15 16.09 Fair CLR 28 13 40% 28 76.05 0.0
06 15:15 SW 20 G 28 16.09 Fair CLR 29 13 37% 28 76.1 0.0
06 14:55 W 13 G 30 16.09 Fair CLR 29 13 37% 28 76.12 0.0
06 14:35 SW 15 G 30 16.09 Fair CLR 29 13 37% 28 76.15 0.0
06 14:15 S 22 G 33 16.09 Fair CLR 28 14 42% 28 76.17 0.0
06 13:55 SW 17 16.09 Partly Cloudy SCT055 SCT070 28 15 45% 28 76.2 0.0
06 13:35 W 13 16.09 Fair CLR 28 15 45% 28 76.2 0.0
06 13:15 W 15 16.09 Fair CLR 27 15 48% 27 76.2 0.0
06 12:55 SW 15 G 28 16.09 Fair CLR 27 15 48% 27 76.23 0.0
06 12:35 S 17 16.09 Fair CLR 27 15 48% 27 76.23 0.0
06 12:15 SW 19 G 30 16.09 Fair CLR 27 15 48% 27 76.25 0.0
06 11:55 S 9 16.09 Fair CLR 26 15 51% 27 76.25 0.0
06 11:35 SW 15 G 28 16.09 Fair CLR 26 14 48% 26 76.28 0.0
06 11:15 SW 17 16.09 Fair CLR 25 15 54% 26 76.3 0.0
06 10:55 S 15 16.09 Fair CLR 25 14 51% 26 76.28 0.0
06 10:35 S 13 16.09 Fair CLR 24 15 57% 25 76.28 0.0
06 10:15 SW 11 16.09 Fair CLR 23 15 61% 76.3 0.0
06 09:55 S 15 16.09 Fair CLR 23 15 61% 76.28 0.0
06 09:35 SW 15 G 26 16.09 Fair CLR 22 15 65% 76.25 0.0
06 09:15 SW 11 16.09 Fair CLR 22 15 65% 76.25 0.0
06 08:55 SW 17 16.09 Fair CLR 21 15 69% 76.28 0.0
06 08:35 S 9 16.09 Fair CLR 20 15 73% 76.25 0.0
06 08:15 S 9 16.09 Fair CLR 19 15 78% 76.25 0.0
06 07:35 Calm 16.09 Fair CLR 14 13 94% 76.25 0.0
06 07:10 Calm 16.09 Fair CLR 12 12 100% 76.23 0.0
06 06:55 Calm 16.09 Fair CLR 12 12 100% 76.23 0.0
06 06:35 Calm 16.09 Fair CLR 12 11 94% 76.23 0.0
06 06:15 Calm 16.09 Fair CLR 11 11 100% 76.2 0.0
06 05:55 Calm 16.09 Fair CLR 11 11 100% 76.23 0.0
06 05:35 Calm 16.09 Fair CLR 12 12 100% 76.23 0.0
06 05:15 Calm 11.27 Fair CLR 11 11 100% 76.23 0.0
06 04:55 Calm 16.09 Fair CLR 11 11 100% 76.2 0.0
06 04:35 Calm 16.09 Fair CLR 12 12 100% 76.2 0.0
06 04:15 Calm 16.09 Fair CLR 12 12 100% 76.23 0.0
06 03:55 Calm 16.09 Fair CLR 12 12 100% 76.2 0.0
06 03:35 Calm 16.09 Fair CLR 12 12 100% 76.2 0.0
06 03:15 Calm 16.09 Fair CLR 12 12 100% 76.2 0.0
06 02:55 Calm 16.09 Fair CLR 12 11 94% 76.2 0.0
06 02:35 Calm 16.09 Fair CLR 11 11 100% 76.17 0.0
06 02:15 Calm 16.09 Fair CLR 11 11 100% 76.2 0.0
06 01:55 Calm 16.09 Fair CLR 11 11 100% 76.23 0.0
06 01:35 Calm 16.09 Fair CLR 11 11 100% 76.25 0.0
06 01:15 Calm 16.09 Fair CLR 11 11 100% 76.28 0.0
06 00:55 Calm 8.05 Fog/Mist CLR 11 11 100% 76.3 0.0
06 00:35 Calm 16.09 Fair CLR 12 12 100% 76.3 0.0
06 00:15 Calm 16.09 Fair CLR 12 12 100% 76.3 0.0
05 23:55 Calm 16.09 Fair CLR 12 12 100% 76.3 0.0
05 23:35 Calm 16.09 Fair CLR 13 12 94% 76.3 0.0
05 23:15 Calm 16.09 Fair CLR 13 13 100% 76.33 0.0
05 22:55 Calm 16.09 Fair CLR 13 13 100% 76.33 0.0
05 22:35 Calm 16.09 Fair CLR 15 13 88% 76.33 0.0
05 22:15 Calm 16.09 Fair CLR 15 13 88% 76.33 0.0
05 21:55 Calm 16.09 Fair CLR 17 13 77% 76.3 0.0
05 21:35 S 6 16.09 Fair CLR 17 13 77% 76.3 0.0
05 21:15 S 6 16.09 Fair CLR 18 13 73% 76.3 0.0
05 20:55 S 9 16.09 Fair CLR 18 13 73% 76.28 0.0
05 20:35 S 7 16.09 Fair CLR 19 13 68% 76.28 0.0
05 20:15 S 11 16.09 Fair CLR 20 13 64% 76.28 0.0
05 19:55 S 7 16.09 Fair CLR 20 13 64% 76.28 0.0
05 19:35 S 13 16.09 Fair CLR 21 13 60% 76.28 0.0
05 19:15 S 17 G 26 16.09 Fair CLR 21 13 60% 76.25 0.0
05 18:55 S 13 G 26 16.09 Fair CLR 22 13 57% 76.25 0.0
05 18:35 SE 17 G 30 16.09 Fair CLR 22 12 53% 76.25 0.0
05 18:15 S 15 16.09 Fair CLR 23 12 50% 76.25 0.0
05 17:55 S 20 G 28 16.09 Fair CLR 23 12 50% 76.25 0.0
05 17:35 S 17 16.09 Fair CLR 23 12 50% 76.25 0.0
05 17:15 SE 17 G 26 16.09 Fair CLR 23 12 50% 76.25 0.0
05 16:55 S 17 G 28 16.09 Fair CLR 23 12 50% 76.25 0.0
05 16:35 S 17 G 26 16.09 Fair CLR 24 12 47% 25 76.28 0.0
05 16:15 S 19 G 31 16.09 Fair CLR 25 12 44% 26 76.28 0.0
05 15:55 SE 19 G 30 16.09 Fair CLR 25 13 47% 26 76.28 0.0
05 15:35 S 17 G 28 16.09 Fair CLR 25 12 44% 26 76.3 0.0
05 15:15 S 17 G 26 16.09 Fair CLR 25 13 47% 26 76.3 0.0
05 14:55 SE 15 G 31 16.09 Fair CLR 25 13 47% 26 76.33 0.0
Date Time (edt) Wind (kph) Vis. (km) Weather Sky Cond. Air Dwpt Max. Min. Relative Humidity Wind Chill (°C) Heat Index (°C) altimeter (cm) sea level (mb) 1 hr 3 hr 6 hr
6 hour
Temperature (ºC) Pressure Precipitation (cm)